createdAt,value
2022-08-12T00:00:20.994Z,5.43
2022-08-12T00:03:06.593Z,4.47
2022-08-12T00:06:03.930Z,4.68
2022-08-12T00:08:52.552Z,4.22
2022-08-12T00:11:40.826Z,4.00
2022-08-12T00:14:26.820Z,3.90
2022-08-12T00:17:12.588Z,4.57
2022-08-12T00:19:58.084Z,3.38
2022-08-12T00:22:43.932Z,4.55
2022-08-12T00:25:55.850Z,3.80
2022-08-12T00:28:36.512Z,4.22
2022-08-12T00:31:22.454Z,3.65
2022-08-12T00:34:08.160Z,4.20
2022-08-12T00:36:54.049Z,4.60
2022-08-12T00:39:40.555Z,4.97
2022-08-12T00:42:11.951Z,4.25
2022-08-12T00:47:24.529Z,3.40
2022-08-12T00:49:55.624Z,4.38
2022-08-12T00:52:25.119Z,4.60
2022-08-12T00:54:57.430Z,3.75
2022-08-12T00:57:29.038Z,4.18
2022-08-12T01:02:29.703Z,3.97
2022-08-12T01:05:18.390Z,4.18
2022-08-12T01:08:06.048Z,4.82
2022-08-12T01:10:55.036Z,5.60
2022-08-12T01:13:24.097Z,5.40
2022-08-12T01:15:56.159Z,5.50
2022-08-12T01:18:27.402Z,4.78
2022-08-12T01:21:07.949Z,4.80
2022-08-12T01:23:47.477Z,4.32
2022-08-12T01:26:21.133Z,4.57
2022-08-12T01:28:52.637Z,5.18
2022-08-12T01:31:22.223Z,4.55
2022-08-12T01:34:03.685Z,4.90
2022-08-12T01:39:06.117Z,4.05
2022-08-12T01:41:41.163Z,4.47
2022-08-12T01:44:10.827Z,4.80
2022-08-12T01:46:53.442Z,4.47
2022-08-12T01:49:51.823Z,4.30
2022-08-12T01:52:30.703Z,4.30
2022-08-12T01:55:01.205Z,3.78
2022-08-12T01:57:58.702Z,4.80
2022-08-12T02:00:55.404Z,4.20
2022-08-12T02:03:54.598Z,4.32
2022-08-12T02:06:48.342Z,4.97
2022-08-12T02:09:40.248Z,3.92
2022-08-12T02:12:24.273Z,3.92
2022-08-12T02:15:04.725Z,4.53
2022-08-12T02:17:55.819Z,4.10
2022-08-12T02:20:35.121Z,3.80
2022-08-12T02:23:20.690Z,4.18
2022-08-12T02:25:52.018Z,4.22
2022-08-12T02:30:50.876Z,3.63
2022-08-12T02:33:21.079Z,3.83
2022-08-12T02:35:51.726Z,3.90
2022-08-12T02:38:22.996Z,3.67
2022-08-12T02:40:55.246Z,3.47
2022-08-12T02:43:32.161Z,4.22
2022-08-12T02:46:10.393Z,4.10
2022-08-12T02:48:47.716Z,3.55
2022-08-12T02:51:21.642Z,3.83
2022-08-12T02:54:04.307Z,3.58
2022-08-12T02:56:37.931Z,2.97
2022-08-12T02:59:12.456Z,3.20
2022-08-12T03:01:48.531Z,4.00
2022-08-12T03:04:27.481Z,3.53
2022-08-12T03:07:05.633Z,3.33
2022-08-12T03:09:54.313Z,3.63
2022-08-12T03:12:33.950Z,3.85
2022-08-12T03:15:06.654Z,3.28
2022-08-12T03:17:44.043Z,3.33
2022-08-12T03:20:16.237Z,3.10
2022-08-12T03:22:46.040Z,3.58
2022-08-12T03:25:18.189Z,3.58
2022-08-12T03:27:51.892Z,3.97
2022-08-12T03:30:21.172Z,3.28
2022-08-12T03:32:52.838Z,3.35
2022-08-12T03:35:40.622Z,3.83
2022-08-12T03:38:16.282Z,3.65
2022-08-12T03:41:15.262Z,3.35
2022-08-12T03:44:07.545Z,3.38
2022-08-12T03:46:57.846Z,4.07
2022-08-12T03:49:45.989Z,3.63
2022-08-12T03:52:31.847Z,3.08
2022-08-12T03:55:17.721Z,3.28
2022-08-12T03:58:03.560Z,3.50
2022-08-12T04:00:31.987Z,3.10
2022-08-12T04:03:01.786Z,3.22
2022-08-12T04:05:54.534Z,3.17
2022-08-12T04:08:25.475Z,3.42
2022-08-12T04:11:20.477Z,3.83
2022-08-12T04:13:48.767Z,4.03
2022-08-12T04:16:18.060Z,3.40
2022-08-12T04:18:46.674Z,3.72
2022-08-12T04:21:16.188Z,3.70
2022-08-12T04:23:48.398Z,3.50
2022-08-12T04:26:17.405Z,4.07
2022-08-12T04:28:45.861Z,3.58
2022-08-12T04:31:14.512Z,3.63
2022-08-12T04:33:43.991Z,3.88
2022-08-12T04:36:12.268Z,3.65
2022-08-12T04:38:43.246Z,4.10
2022-08-12T04:41:12.450Z,3.67
2022-08-12T04:43:59.727Z,4.35
2022-08-12T04:46:33.521Z,4.70
2022-08-12T04:49:03.774Z,4.18
2022-08-12T04:51:32.529Z,4.18
2022-08-12T04:54:02.781Z,4.32
2022-08-12T04:56:35.520Z,4.20
2022-08-12T04:59:04.474Z,4.22
2022-08-12T05:01:32.869Z,4.15
2022-08-12T05:04:02.889Z,4.03
2022-08-12T05:06:31.111Z,3.85
2022-08-12T05:09:00.704Z,4.22
2022-08-12T05:11:30.362Z,3.88
2022-08-12T05:14:02.299Z,3.67
2022-08-12T05:16:34.329Z,3.60
2022-08-12T05:19:05.428Z,3.30
2022-08-12T05:21:41.943Z,3.42
2022-08-12T05:24:10.471Z,3.10
2022-08-12T05:26:41.105Z,3.67
2022-08-12T05:30:08.051Z,3.70
2022-08-12T05:34:29.097Z,3.67
2022-08-12T05:36:57.466Z,3.85
2022-08-12T05:39:25.705Z,3.45
2022-08-12T05:41:55.957Z,4.15
2022-08-12T05:44:24.156Z,3.63
2022-08-12T05:46:52.367Z,3.72
2022-08-12T05:49:20.511Z,3.25
2022-08-12T05:51:48.677Z,4.40
2022-08-12T05:54:17.104Z,3.85
2022-08-12T05:56:45.783Z,3.40
2022-08-12T05:59:15.604Z,3.20
2022-08-12T06:02:10.974Z,3.38
2022-08-12T06:04:33.477Z,2.50
2022-08-12T06:08:00.278Z,3.40
2022-08-12T06:09:53.830Z,3.10
2022-08-12T06:12:23.429Z,3.20
2022-08-12T06:14:55.881Z,3.75
2022-08-12T06:17:24.201Z,3.08
2022-08-12T06:20:26.046Z,3.22
2022-08-12T06:22:40.882Z,3.00
2022-08-12T06:25:10.229Z,4.03
2022-08-12T06:28:08.018Z,3.03
2022-08-12T06:30:39.838Z,3.10
2022-08-12T06:35:52.504Z,3.22
2022-08-12T06:38:28.107Z,3.63
2022-08-12T06:41:15.215Z,3.40
2022-08-12T06:44:05.776Z,3.25
2022-08-12T06:46:35.145Z,3.08
2022-08-12T06:49:03.558Z,3.55
2022-08-12T06:51:33.001Z,3.05
2022-08-12T06:54:02.362Z,3.33
2022-08-12T06:57:01.766Z,2.85
2022-08-12T06:59:21.479Z,2.83
2022-08-12T07:01:52.070Z,3.05
2022-08-12T07:04:38.389Z,3.03
2022-08-12T07:07:08.357Z,3.60
2022-08-12T07:10:05.153Z,3.63
2022-08-12T07:12:28.164Z,3.70
2022-08-12T07:14:57.343Z,3.63
2022-08-12T07:17:31.682Z,3.03
2022-08-12T07:20:04.165Z,3.13
2022-08-12T07:22:33.212Z,2.95
2022-08-12T07:25:18.797Z,2.83
2022-08-12T07:27:47.158Z,4.78
2022-08-12T07:30:15.692Z,3.70
2022-08-12T07:32:47.578Z,5.57
2022-08-12T07:35:15.691Z,2.92
2022-08-12T07:37:44.326Z,3.50
2022-08-12T07:40:13.330Z,2.10
2022-08-12T07:42:44.257Z,3.45
2022-08-12T07:45:14.156Z,2.67
2022-08-12T07:47:44.936Z,2.90
2022-08-12T07:50:14.371Z,2.70
2022-08-12T07:52:44.890Z,2.97
2022-08-12T07:55:13.925Z,3.40
2022-08-12T07:57:56.057Z,4.97
2022-08-12T08:00:25.148Z,6.00
2022-08-12T08:02:55.257Z,5.20
2022-08-12T08:05:25.071Z,4.80
2022-08-12T08:07:55.747Z,3.33
2022-08-12T08:10:23.977Z,3.45
2022-08-12T08:12:54.071Z,4.45
2022-08-12T08:15:38.704Z,3.35
2022-08-12T08:18:26.620Z,4.82
2022-08-12T08:20:56.800Z,4.88
2022-08-12T08:23:56.156Z,2.92
2022-08-12T08:26:27.250Z,3.33
2022-08-12T08:28:55.674Z,3.08
2022-08-12T08:31:23.895Z,3.10
2022-08-12T08:34:04.235Z,3.38
2022-08-12T08:36:39.296Z,3.03
2022-08-12T08:39:08.213Z,2.90
2022-08-12T08:42:15.460Z,3.20
2022-08-12T08:44:42.384Z,2.20
2022-08-12T08:47:12.252Z,2.70
2022-08-12T08:49:41.962Z,2.60
2022-08-12T08:52:12.225Z,2.53
2022-08-12T08:54:40.723Z,2.57
2022-08-12T08:57:10.192Z,2.30
2022-08-12T08:59:38.359Z,1.95
2022-08-12T09:02:07.757Z,2.30
2022-08-12T09:05:13.155Z,1.98
2022-08-12T09:07:51.466Z,2.25
2022-08-12T09:10:30.562Z,1.98
2022-08-12T09:13:23.468Z,2.45
2022-08-12T09:15:57.685Z,1.70
2022-08-12T09:21:16.799Z,1.38
2022-08-12T09:23:58.906Z,1.63
2022-08-12T09:26:45.983Z,2.17
2022-08-12T09:29:15.459Z,1.80
2022-08-12T09:32:06.529Z,2.13
2022-08-12T09:34:37.795Z,1.90
2022-08-12T09:37:19.312Z,1.75
2022-08-12T09:40:04.999Z,2.33
2022-08-12T09:43:17.053Z,2.45
2022-08-12T09:46:06.524Z,2.88
2022-08-12T09:48:39.293Z,2.10
2022-08-12T09:51:10.968Z,1.80
2022-08-12T09:54:06.017Z,2.70
2022-08-12T09:57:02.065Z,2.53
2022-08-12T10:00:17.898Z,1.67
2022-08-12T10:02:45.709Z,1.77
2022-08-12T10:05:09.372Z,1.85
2022-08-12T10:07:41.754Z,2.17
2022-08-12T10:10:24.266Z,2.90
2022-08-12T10:13:35.205Z,1.83
2022-08-12T10:16:05.848Z,2.03
2022-08-12T10:18:52.396Z,2.08
2022-08-12T10:21:23.352Z,3.35
2022-08-12T10:23:55.201Z,1.90
2022-08-12T10:26:43.108Z,2.10
2022-08-12T10:30:03.098Z,1.98
2022-08-12T10:32:44.341Z,2.20
2022-08-12T10:35:14.668Z,2.13
2022-08-12T10:38:34.605Z,2.03
2022-08-12T10:40:34.483Z,2.50
2022-08-12T10:43:23.085Z,2.38
2022-08-12T10:45:58.314Z,1.83
2022-08-12T10:48:33.924Z,1.88
2022-08-12T10:52:04.893Z,2.25
2022-08-12T10:54:00.655Z,1.92
2022-08-12T10:56:34.439Z,2.25
2022-08-12T10:59:05.434Z,2.00
2022-08-12T11:04:18.107Z,1.98
2022-08-12T11:04:41.268Z,2.20
2022-08-12T11:08:33.860Z,2.55
2022-08-12T11:10:02.853Z,2.22
2022-08-12T11:12:55.347Z,2.33
2022-08-12T11:15:32.674Z,2.15
2022-08-12T11:18:18.662Z,2.28
2022-08-12T11:20:51.984Z,2.35
2022-08-12T11:23:25.344Z,2.60
2022-08-12T11:26:07.979Z,2.58
2022-08-12T11:28:38.366Z,2.83
2022-08-12T11:31:09.806Z,3.97
2022-08-12T11:34:05.995Z,2.42
2022-08-12T11:36:31.344Z,3.85
2022-08-12T11:39:04.509Z,4.10
2022-08-12T11:41:35.897Z,5.90
2022-08-12T11:44:30.729Z,3.25
2022-08-12T11:46:55.183Z,2.10
2022-08-12T11:49:31.993Z,2.10
2022-08-12T11:52:17.647Z,2.20
2022-08-12T11:54:54.295Z,2.97
2022-08-12T11:58:10.064Z,2.60
2022-08-12T12:03:00.728Z,2.22
2022-08-12T12:05:41.905Z,2.78
2022-08-12T12:08:37.561Z,2.80
2022-08-12T12:11:09.947Z,2.78
2022-08-12T12:14:08.918Z,2.65
2022-08-12T12:16:27.047Z,1.88
2022-08-12T12:18:58.081Z,2.75
2022-08-12T12:21:48.531Z,2.80
2022-08-12T12:24:20.875Z,2.08
2022-08-12T12:26:59.616Z,2.38
2022-08-12T12:30:18.483Z,1.98
2022-08-12T12:32:18.967Z,1.58
2022-08-12T12:35:18.336Z,1.98
2022-08-12T12:38:05.162Z,1.90
2022-08-12T12:40:29.853Z,2.42
2022-08-12T12:43:03.022Z,2.55
2022-08-12T12:45:35.534Z,2.33
2022-08-12T12:48:05.847Z,1.60
2022-08-12T12:50:45.111Z,1.98
2022-08-12T12:54:08.095Z,2.13
2022-08-12T12:56:16.356Z,1.65
2022-08-12T12:58:44.758Z,2.28
2022-08-12T13:01:28.066Z,1.98
2022-08-12T13:04:02.564Z,2.45
2022-08-12T13:06:32.374Z,2.08
2022-08-12T13:09:04.434Z,2.30
2022-08-12T13:11:42.261Z,2.20
2022-08-12T13:14:29.166Z,2.45
2022-08-12T13:17:02.824Z,2.60
2022-08-12T13:19:38.628Z,1.77
2022-08-12T13:24:56.530Z,1.70
2022-08-12T13:27:35.737Z,2.00
2022-08-12T13:30:11.383Z,1.92
2022-08-12T13:32:40.930Z,1.60
2022-08-12T13:35:19.293Z,2.92
2022-08-12T13:37:54.699Z,2.50
2022-08-12T13:40:27.192Z,2.70
2022-08-12T13:42:57.767Z,2.45
2022-08-12T13:45:29.049Z,2.08
2022-08-12T13:50:29.949Z,2.10
2022-08-12T13:52:58.556Z,3.08
2022-08-12T13:55:30.976Z,3.88
2022-08-12T13:58:01.717Z,3.53
2022-08-12T14:00:34.381Z,3.08
2022-08-12T14:03:07.403Z,2.95
2022-08-12T14:05:39.252Z,2.88
2022-08-12T14:08:09.177Z,2.60
2022-08-12T14:10:51.044Z,2.80
2022-08-12T14:14:03.979Z,2.80
2022-08-12T14:16:37.486Z,2.60
2022-08-12T14:19:10.441Z,2.90
2022-08-12T14:21:59.509Z,2.47
2022-08-12T14:24:40.677Z,1.98
2022-08-12T14:27:11.398Z,2.90
2022-08-12T14:30:05.107Z,3.20
2022-08-12T14:32:39.948Z,3.08
2022-08-12T14:35:09.903Z,3.38
2022-08-12T14:37:55.232Z,8.27
2022-08-12T14:40:28.643Z,6.22
2022-08-12T14:42:59.852Z,7.27
2022-08-12T14:45:44.355Z,7.05
2022-08-12T14:48:16.182Z,4.55
2022-08-12T14:51:03.265Z,8.30
2022-08-12T14:59:57.475Z,5.55
2022-08-12T15:02:21.198Z,5.35
2022-08-12T15:04:59.744Z,3.75
2022-08-12T15:07:33.319Z,2.70
2022-08-12T15:10:13.446Z,2.53
2022-08-12T15:12:41.898Z,2.80
2022-08-12T15:15:12.449Z,3.22
2022-08-12T15:17:40.659Z,2.90
2022-08-12T15:20:33.188Z,3.10
2022-08-12T15:22:58.230Z,4.95
2022-08-12T15:25:27.185Z,4.45
2022-08-12T15:28:04.758Z,5.68
2022-08-12T15:30:39.382Z,4.07
2022-08-12T15:33:12.681Z,2.35
2022-08-12T15:35:52.039Z,2.63
2022-08-12T15:38:24.577Z,3.05
2022-08-12T15:40:54.225Z,2.55
2022-08-12T15:43:51.521Z,2.75
2022-08-12T15:46:15.857Z,2.85
2022-08-12T15:48:46.842Z,2.60
2022-08-12T15:51:59.292Z,3.42
2022-08-12T15:54:33.145Z,2.80
2022-08-12T15:57:08.243Z,4.25
2022-08-12T16:00:04.578Z,3.00
2022-08-12T16:02:29.903Z,2.80
2022-08-12T16:04:58.806Z,2.55
2022-08-12T16:07:37.095Z,2.42
2022-08-12T16:10:09.273Z,2.83
2022-08-12T16:12:54.426Z,2.17
2022-08-12T16:15:26.689Z,2.75
2022-08-12T16:18:15.230Z,2.55
2022-08-12T16:20:47.469Z,2.40
2022-08-12T16:23:26.990Z,2.47
2022-08-12T16:26:15.193Z,2.45
2022-08-12T16:28:47.611Z,2.17
2022-08-12T16:31:23.238Z,2.60
2022-08-12T16:34:00.012Z,3.08
2022-08-12T16:36:29.706Z,3.55
2022-08-12T16:39:01.602Z,2.80
2022-08-12T16:41:33.497Z,3.17
2022-08-12T16:44:08.463Z,2.65
2022-08-12T16:46:37.579Z,3.22
2022-08-12T16:49:13.225Z,3.25
2022-08-12T16:51:46.850Z,2.35
2022-08-12T16:54:17.205Z,2.78
2022-08-12T16:56:54.989Z,2.13
2022-08-12T16:59:30.741Z,2.33
2022-08-12T17:02:00.391Z,3.22
2022-08-12T17:04:30.481Z,2.58
2022-08-12T17:06:58.617Z,2.90
2022-08-12T17:09:27.403Z,3.17
2022-08-12T17:12:09.362Z,2.70
2022-08-12T17:14:37.936Z,2.72
2022-08-12T17:17:18.534Z,3.60
2022-08-12T17:20:30.506Z,2.80
2022-08-12T17:22:56.525Z,4.85
2022-08-12T17:25:25.855Z,2.97
2022-08-12T17:27:58.251Z,5.00
2022-08-12T17:30:29.079Z,12.53
2022-08-12T17:33:02.762Z,5.13
2022-08-12T17:35:37.627Z,13.48
2022-08-12T17:38:13.482Z,7.50
2022-08-12T17:40:46.662Z,4.70
2022-08-12T17:43:57.703Z,3.20
2022-08-12T17:46:13.225Z,3.70
2022-08-12T17:48:55.182Z,2.83
2022-08-12T17:51:26.349Z,2.38
2022-08-12T17:54:10.407Z,2.33
2022-08-12T17:56:40.275Z,2.90
2022-08-12T17:59:12.530Z,3.00
2022-08-12T18:01:45.475Z,2.72
2022-08-12T18:04:21.789Z,3.20
2022-08-12T18:06:55.786Z,3.00
2022-08-12T18:09:32.045Z,4.57
2022-08-12T18:12:24.690Z,2.92
2022-08-12T18:14:58.851Z,2.55
2022-08-12T18:17:28.330Z,2.40
2022-08-12T18:20:06.281Z,3.08
2022-08-12T18:22:38.625Z,3.13
2022-08-12T18:28:16.477Z,2.80
2022-08-12T18:30:53.055Z,2.85
2022-08-12T18:33:25.827Z,2.65
2022-08-12T18:41:21.797Z,4.05
2022-08-12T18:44:01.239Z,3.03
2022-08-12T18:46:54.035Z,2.90
2022-08-12T18:49:30.742Z,2.42
2022-08-12T18:52:04.318Z,2.22
2022-08-12T18:54:37.623Z,2.28
2022-08-12T18:57:16.567Z,2.22
2022-08-12T18:59:59.600Z,2.53
2022-08-12T19:02:36.035Z,2.20
2022-08-12T19:05:10.907Z,2.70
2022-08-12T19:07:49.212Z,2.47
2022-08-12T19:10:23.060Z,2.35
2022-08-12T19:13:10.685Z,2.50
2022-08-12T19:15:43.115Z,2.47
2022-08-12T19:18:13.309Z,2.42
2022-08-12T19:20:43.927Z,2.70
2022-08-12T19:23:21.252Z,2.58
2022-08-12T19:26:00.448Z,2.60
2022-08-12T19:28:35.393Z,2.35
2022-08-12T19:31:56.890Z,2.40
2022-08-12T19:37:26.695Z,2.97
2022-08-12T19:40:09.397Z,2.38
2022-08-12T19:42:53.591Z,2.20
2022-08-12T19:45:43.982Z,2.67
2022-08-12T19:48:18.063Z,2.78
2022-08-12T19:50:50.588Z,1.80
2022-08-12T19:53:22.625Z,2.45
2022-08-12T19:55:53.421Z,1.87
2022-08-12T19:58:24.954Z,2.08
2022-08-12T20:03:39.282Z,2.35
2022-08-12T20:06:21.627Z,3.80
2022-08-12T20:08:56.381Z,2.75
2022-08-12T20:12:13.335Z,2.47
2022-08-12T20:14:19.553Z,3.22
2022-08-12T20:16:57.705Z,2.60
2022-08-12T20:20:00.999Z,2.38
2022-08-12T20:22:24.876Z,2.17
2022-08-12T20:25:01.040Z,2.35
2022-08-12T20:28:05.428Z,1.80
2022-08-12T20:30:37.283Z,2.22
2022-08-12T20:33:17.297Z,1.83
2022-08-12T20:36:13.706Z,2.10
2022-08-12T20:38:39.793Z,1.98
2022-08-12T20:41:16.671Z,1.70
2022-08-12T20:43:49.423Z,1.75
2022-08-12T20:46:19.994Z,1.80
2022-08-12T20:48:54.785Z,1.70
2022-08-12T20:51:27.532Z,2.20
2022-08-12T20:53:59.445Z,2.23
2022-08-12T20:56:34.712Z,1.75
2022-08-12T20:59:06.696Z,1.92
2022-08-12T21:01:47.711Z,1.70
2022-08-12T21:04:36.714Z,2.05
2022-08-12T21:07:09.090Z,2.33
2022-08-12T21:09:42.062Z,1.80
2022-08-12T21:12:37.440Z,2.05
2022-08-12T21:15:23.285Z,2.10
2022-08-12T21:18:15.499Z,1.73
2022-08-12T21:20:50.915Z,2.25
2022-08-12T21:23:21.604Z,2.20
2022-08-12T21:25:51.660Z,2.03
2022-08-12T21:28:22.212Z,1.77
2022-08-12T21:32:37.613Z,3.33
2022-08-12T21:34:06.577Z,2.72
2022-08-12T21:36:35.578Z,2.33
2022-08-12T21:39:20.142Z,1.80
2022-08-12T21:41:52.091Z,2.65
2022-08-12T21:44:32.544Z,2.53
2022-08-12T21:47:20.930Z,3.45
2022-08-12T21:50:06.472Z,3.33
2022-08-12T21:52:36.653Z,3.30
2022-08-12T21:55:18.233Z,2.95
2022-08-12T21:57:53.083Z,2.65
2022-08-12T22:00:33.161Z,2.53
2022-08-12T22:04:01.699Z,2.67
2022-08-12T22:06:30.723Z,3.45
2022-08-12T22:09:15.788Z,2.92
2022-08-12T22:11:56.108Z,3.22
2022-08-12T22:14:27.992Z,2.55
2022-08-12T22:16:57.805Z,3.05
2022-08-12T22:19:27.032Z,3.53
2022-08-12T22:21:58.541Z,3.08
2022-08-12T22:24:30.353Z,2.90
2022-08-12T22:27:16.029Z,3.08
2022-08-12T22:30:06.099Z,2.65
2022-08-12T22:32:36.599Z,2.50
2022-08-12T22:35:24.252Z,1.98
2022-08-12T22:38:10.865Z,2.20
2022-08-12T22:40:39.817Z,2.58
2022-08-12T22:43:29.234Z,2.50
2022-08-12T22:46:14.737Z,2.92
2022-08-12T22:48:50.181Z,2.45
2022-08-12T22:51:22.154Z,2.53
2022-08-12T22:53:55.099Z,2.35
2022-08-12T22:56:31.021Z,2.50
2022-08-12T22:59:02.516Z,2.88
2022-08-12T23:02:01.551Z,3.83
2022-08-12T23:04:27.584Z,3.40
2022-08-12T23:07:05.548Z,3.33
2022-08-12T23:09:48.797Z,4.57
2022-08-12T23:12:40.966Z,4.40
2022-08-12T23:15:14.652Z,3.50
2022-08-12T23:17:43.572Z,3.00
2022-08-12T23:20:15.158Z,3.15
2022-08-12T23:23:08.834Z,3.15
2022-08-12T23:25:54.243Z,3.35
2022-08-12T23:28:42.442Z,3.40
2022-08-12T23:31:10.938Z,3.60
2022-08-12T23:34:01.575Z,4.30
2022-08-12T23:36:39.044Z,4.85
2022-08-12T23:40:14.052Z,5.53
2022-08-12T23:42:18.147Z,4.50
2022-08-12T23:44:48.378Z,5.63
2022-08-12T23:47:21.108Z,4.30
2022-08-12T23:49:57.220Z,3.55
2022-08-12T23:52:33.889Z,3.63
2022-08-12T23:55:23.034Z,3.78
2022-08-12T23:58:20.906Z,3.53
